Olga, Washington
Current Conditions -  °F | °C
As of 1:55 AM on Saturday 20 Dec 2014 (Local Time) from KORS Reporting Station
Light Rain Light Rain  
Wind Chill:   Ceiling: Unl
Heat Index:   Visibility: 8mi
Dew Point:   Wind: 18mph
Humidity: 71%   Direction: 140°SE
Pressure: 29.71"   Gusts: 38mph
Location:  48.62°N, 122.83°W
Report Text: KORS 200955Z AUTO 14016G33KT 8SM -RA FEW029 09/04 A2971 RMK AO2
Loading
Personal Weather Stations






























Interactive Weather Map New forecast layout! Learn more

10-Day Weather Forecast

Advertisements
Track Severe Weather on mobile